createdAt,value
2019-03-28T00:00:01.138Z,14
2019-03-28T00:02:01.099Z,15
2019-03-28T00:03:01.097Z,16
2019-03-28T00:04:01.111Z,17
2019-03-28T00:06:01.121Z,18
2019-03-28T00:07:01.119Z,17
2019-03-28T00:09:01.093Z,16
2019-03-28T00:11:01.101Z,14
2019-03-28T00:12:01.130Z,16
2019-03-28T00:13:01.095Z,15
2019-03-28T00:15:01.094Z,14
2019-03-28T00:16:01.098Z,16
2019-03-28T00:18:01.128Z,17
2019-03-28T00:19:01.094Z,16
2019-03-28T00:20:01.093Z,17
2019-03-28T00:21:01.161Z,16
2019-03-28T00:22:01.093Z,14
2019-03-28T00:24:01.127Z,16
2019-03-28T00:26:01.096Z,17
2019-03-28T00:27:01.101Z,18
2019-03-28T00:28:01.095Z,17
2019-03-28T00:30:01.125Z,18
2019-03-28T00:33:01.097Z,17
2019-03-28T00:34:01.095Z,16
2019-03-28T00:35:01.126Z,17
2019-03-28T00:37:01.094Z,18
2019-03-28T00:38:01.095Z,19
2019-03-28T00:39:01.094Z,18
2019-03-28T00:40:01.156Z,19
2019-03-28T00:41:01.095Z,18
2019-03-28T00:42:01.095Z,16
2019-03-28T00:43:01.143Z,15
2019-03-28T00:44:01.097Z,14
2019-03-28T00:45:01.108Z,13
2019-03-28T00:46:01.104Z,14
2019-03-28T00:48:01.290Z,16
2019-03-28T00:49:01.096Z,18
2019-03-28T00:50:01.097Z,19
2019-03-28T00:51:01.097Z,18
2019-03-28T00:52:01.100Z,19
2019-03-28T00:57:01.082Z,20
2019-03-28T00:59:01.115Z,19
2019-03-28T01:00:01.087Z,16
2019-03-28T01:01:01.082Z,17
2019-03-28T01:02:03.043Z,15
2019-03-28T01:03:01.085Z,14
2019-03-28T01:04:01.112Z,13
2019-03-28T01:05:01.085Z,15
2019-03-28T01:07:01.087Z,16
2019-03-28T01:08:01.093Z,18
2019-03-28T01:09:04.052Z,19
2019-03-28T01:10:01.086Z,17
2019-03-28T01:11:01.088Z,14
2019-03-28T01:12:01.087Z,15
2019-03-28T01:15:01.094Z,16
2019-03-28T01:16:01.106Z,19
2019-03-28T01:17:01.091Z,18
2019-03-28T01:18:01.091Z,19
2019-03-28T01:19:01.092Z,21
2019-03-28T01:20:01.115Z,20
2019-03-28T01:21:01.093Z,19
2019-03-28T01:22:01.093Z,20
2019-03-28T01:24:01.091Z,18
2019-03-28T01:25:01.799Z,16
2019-03-28T01:26:01.094Z,17
2019-03-28T01:27:01.094Z,15
2019-03-28T01:29:01.093Z,16
2019-03-28T01:30:01.120Z,18
2019-03-28T01:31:01.095Z,17
2019-03-28T01:32:01.092Z,16
2019-03-28T01:34:01.096Z,15
2019-03-28T01:35:01.991Z,14
2019-03-28T01:37:01.094Z,15
2019-03-28T01:39:01.094Z,17
2019-03-28T01:40:01.123Z,18
2019-03-28T01:42:01.121Z,19
2019-03-28T01:44:01.099Z,17
2019-03-28T01:45:01.110Z,16
2019-03-28T01:46:01.097Z,17
2019-03-28T01:48:01.122Z,16
2019-03-28T01:49:03.555Z,18
2019-03-28T01:50:01.102Z,19
2019-03-28T01:51:01.103Z,17
2019-03-28T01:52:04.004Z,18
2019-03-28T01:57:10.618Z,19
2019-03-28T01:58:01.105Z,17
2019-03-28T01:59:01.054Z,18
2019-03-28T02:00:01.108Z,17
2019-03-28T02:01:02.839Z,16
2019-03-28T02:04:01.121Z,15
2019-03-28T02:05:01.116Z,14
2019-03-28T02:06:01.085Z,15
2019-03-28T02:07:01.085Z,16
2019-03-28T02:08:02.683Z,15
2019-03-28T02:09:01.084Z,17
2019-03-28T02:11:01.108Z,15
2019-03-28T02:12:01.081Z,14
2019-03-28T02:14:01.087Z,13
2019-03-28T02:15:01.106Z,13
2019-03-28T02:16:01.072Z,14
2019-03-28T02:17:01.086Z,12
2019-03-28T02:18:01.053Z,13
2019-03-28T02:20:01.110Z,15
2019-03-28T02:22:01.091Z,17
2019-03-28T02:24:01.317Z,18
2019-03-28T02:25:01.078Z,17
2019-03-28T02:26:01.087Z,16
2019-03-28T02:27:01.086Z,15
2019-03-28T02:29:01.086Z,13
2019-03-28T02:30:01.111Z,12
2019-03-28T02:31:01.058Z,13
2019-03-28T02:33:01.087Z,14
2019-03-28T02:34:01.088Z,15
2019-03-28T02:36:01.083Z,14
2019-03-28T02:37:01.096Z,16
2019-03-28T02:42:01.676Z,15
2019-03-28T02:43:01.090Z,14
2019-03-28T02:44:01.056Z,15
2019-03-28T02:45:01.114Z,16
2019-03-28T02:46:01.090Z,17
2019-03-28T02:47:01.058Z,18
2019-03-28T02:48:01.701Z,17
2019-03-28T02:53:01.129Z,15
2019-03-28T02:55:01.089Z,14
2019-03-28T02:56:01.115Z,15
2019-03-28T02:57:01.090Z,16
2019-03-28T02:58:01.092Z,18
2019-03-28T02:59:01.219Z,19
2019-03-28T03:00:01.116Z,19
2019-03-28T03:01:01.092Z,18
2019-03-28T03:04:01.093Z,17
2019-03-28T03:05:01.128Z,18
2019-03-28T03:06:01.070Z,17
2019-03-28T03:08:01.094Z,18
2019-03-28T03:11:01.106Z,17
2019-03-28T03:14:01.096Z,16
2019-03-28T03:15:01.133Z,16
2019-03-28T03:16:01.096Z,17
2019-03-28T03:19:01.108Z,18
2019-03-28T03:22:01.098Z,19
2019-03-28T03:23:01.099Z,18
2019-03-28T03:24:01.097Z,16
2019-03-28T03:25:01.095Z,15
2019-03-28T03:26:01.065Z,14
2019-03-28T03:27:01.100Z,16
2019-03-28T03:29:01.097Z,17
2019-03-28T03:30:01.154Z,20
2019-03-28T03:32:01.097Z,18
2019-03-28T03:33:01.099Z,17
2019-03-28T03:34:01.100Z,16
2019-03-28T03:35:01.949Z,13
2019-03-28T03:36:01.064Z,15
2019-03-28T03:37:01.068Z,14
2019-03-28T03:38:01.100Z,17
2019-03-28T03:39:01.102Z,19
2019-03-28T03:42:01.120Z,18
2019-03-28T03:44:01.102Z,17
2019-03-28T03:45:01.123Z,17
2019-03-28T03:46:01.687Z,16
2019-03-28T03:47:01.096Z,18
2019-03-28T03:48:02.112Z,15
2019-03-28T03:49:01.102Z,16
2019-03-28T03:50:01.137Z,15
2019-03-28T03:51:01.099Z,16
2019-03-28T03:52:01.095Z,15
2019-03-28T03:53:01.096Z,16
2019-03-28T03:55:01.088Z,17
2019-03-28T03:56:01.099Z,18
2019-03-28T03:57:01.063Z,19
2019-03-28T03:58:14.157Z,18
2019-03-28T03:59:01.065Z,17
2019-03-28T04:00:01.089Z,15
2019-03-28T04:01:01.099Z,13
2019-03-28T04:03:01.103Z,14
2019-03-28T04:04:01.096Z,13
2019-03-28T04:05:01.089Z,14
2019-03-28T04:07:01.131Z,13
2019-03-28T04:08:01.101Z,15
2019-03-28T04:10:01.128Z,17
2019-03-28T04:11:01.099Z,18
2019-03-28T04:13:01.099Z,16
2019-03-28T04:15:01.101Z,15
2019-03-28T04:17:01.049Z,14
2019-03-28T04:19:01.081Z,15
2019-03-28T04:22:01.083Z,16
2019-03-28T04:27:01.086Z,17
2019-03-28T04:30:01.089Z,17
2019-03-28T04:32:01.084Z,14
2019-03-28T04:34:06.863Z,12
2019-03-28T04:39:01.083Z,16
2019-03-28T04:41:01.085Z,17
2019-03-28T04:42:01.092Z,18
2019-03-28T04:43:01.087Z,17
2019-03-28T04:44:01.088Z,14
2019-03-28T04:45:01.091Z,14
2019-03-28T04:47:01.085Z,16
2019-03-28T04:48:01.569Z,15
2019-03-28T04:49:01.053Z,17
2019-03-28T04:52:01.084Z,14
2019-03-28T04:53:01.057Z,16
2019-03-28T04:55:01.056Z,18
2019-03-28T04:56:01.956Z,17
2019-03-28T04:57:01.058Z,18
2019-03-28T04:58:01.057Z,17
2019-03-28T05:00:01.089Z,16
2019-03-28T05:02:03.357Z,17
2019-03-28T05:03:01.089Z,16
2019-03-28T05:08:01.091Z,17
2019-03-28T05:09:01.090Z,18
2019-03-28T05:10:01.091Z,17
2019-03-28T05:11:01.118Z,18
2019-03-28T05:12:01.062Z,17
2019-03-28T05:14:01.090Z,16
2019-03-28T05:15:01.058Z,15
2019-03-28T05:16:02.205Z,16
2019-03-28T05:17:01.090Z,15
2019-03-28T05:19:01.091Z,16
2019-03-28T05:20:01.063Z,18
2019-03-28T05:21:01.122Z,15
2019-03-28T05:22:01.094Z,16
2019-03-28T05:23:01.091Z,17
2019-03-28T05:24:01.091Z,16
2019-03-28T05:25:01.118Z,15
2019-03-28T05:26:01.118Z,16
2019-03-28T05:29:01.103Z,15
2019-03-28T05:30:01.108Z,16
2019-03-28T05:34:01.092Z,19
2019-03-28T05:35:01.062Z,18
2019-03-28T05:36:04.152Z,17
2019-03-28T05:37:01.129Z,16
2019-03-28T05:39:01.094Z,13
2019-03-28T05:40:01.097Z,15
2019-03-28T05:41:01.064Z,16
2019-03-28T05:43:01.096Z,15
2019-03-28T05:44:02.562Z,17
2019-03-28T05:45:01.101Z,17
2019-03-28T05:46:01.097Z,18
2019-03-28T05:48:01.079Z,20
2019-03-28T05:49:01.104Z,21
2019-03-28T05:50:01.082Z,20
2019-03-28T05:51:01.095Z,22
2019-03-28T05:52:01.149Z,21
2019-03-28T05:53:01.146Z,20
2019-03-28T05:54:01.088Z,19
2019-03-28T05:55:01.052Z,18
2019-03-28T05:56:01.082Z,17
2019-03-28T05:59:10.495Z,15
2019-03-28T06:00:01.053Z,17
2019-03-28T06:02:01.083Z,16
2019-03-28T06:03:01.090Z,17
2019-03-28T06:04:01.085Z,19
2019-03-28T06:05:02.145Z,17
2019-03-28T06:06:01.054Z,16
2019-03-28T06:07:01.088Z,17
2019-03-28T06:08:01.092Z,18
2019-03-28T06:09:01.087Z,16
2019-03-28T06:10:01.152Z,17
2019-03-28T06:12:01.089Z,16
2019-03-28T06:13:01.084Z,15
2019-03-28T06:14:01.085Z,16
2019-03-28T06:15:01.056Z,15
2019-03-28T06:18:01.087Z,16
2019-03-28T06:19:01.088Z,15
2019-03-28T06:20:01.088Z,16
2019-03-28T06:23:01.086Z,15
2019-03-28T06:24:01.094Z,16
2019-03-28T06:27:01.088Z,15
2019-03-28T06:30:02.126Z,15
2019-03-28T06:31:01.089Z,16
2019-03-28T06:35:01.089Z,17
2019-03-28T06:36:02.257Z,16
2019-03-28T06:39:01.060Z,17
2019-03-28T06:40:01.091Z,16
2019-03-28T06:41:01.064Z,17
2019-03-28T06:44:01.092Z,15
2019-03-28T06:45:03.500Z,16
2019-03-28T06:46:01.060Z,15
2019-03-28T06:48:01.092Z,16
2019-03-28T06:49:01.094Z,17
2019-03-28T06:50:01.061Z,16
2019-03-28T06:51:01.065Z,17
2019-03-28T06:52:01.097Z,15
2019-03-28T06:53:01.095Z,16
2019-03-28T06:54:01.094Z,15
2019-03-28T06:55:06.113Z,16
2019-03-28T06:56:02.344Z,17
2019-03-28T06:57:01.094Z,18
2019-03-28T07:00:06.069Z,18
2019-03-28T07:01:01.097Z,16
2019-03-28T07:02:01.097Z,17
2019-03-28T07:03:01.066Z,16
2019-03-28T07:04:01.125Z,15
2019-03-28T07:05:01.126Z,16
2019-03-28T07:06:01.101Z,17
2019-03-28T07:08:01.095Z,16
2019-03-28T07:11:01.098Z,17
2019-03-28T07:12:01.096Z,16
2019-03-28T07:13:01.072Z,18
2019-03-28T07:15:01.087Z,18
2019-03-28T07:16:01.094Z,17
2019-03-28T07:17:01.093Z,16
2019-03-28T07:19:02.073Z,17
2019-03-28T07:22:01.095Z,16
2019-03-28T07:23:01.096Z,14
2019-03-28T07:24:01.098Z,13
2019-03-28T07:25:06.103Z,11
2019-03-28T07:26:01.170Z,13
2019-03-28T07:27:01.077Z,16
2019-03-28T07:28:01.105Z,19
2019-03-28T07:30:06.117Z,21
2019-03-28T07:32:01.084Z,20
2019-03-28T07:33:01.082Z,18
2019-03-28T07:35:01.083Z,17
2019-03-28T07:39:01.055Z,15
2019-03-28T07:40:01.210Z,17
2019-03-28T07:43:01.085Z,18
2019-03-28T07:45:01.096Z,16
2019-03-28T07:46:01.092Z,17
2019-03-28T07:47:01.061Z,16
2019-03-28T07:49:01.084Z,17
2019-03-28T07:52:01.557Z,15
2019-03-28T07:54:01.085Z,14
2019-03-28T07:55:01.090Z,15
2019-03-28T07:56:01.120Z,14
2019-03-28T07:57:01.090Z,16
2019-03-28T07:58:01.091Z,18
2019-03-28T08:00:04.266Z,17
2019-03-28T08:01:01.088Z,19
2019-03-28T08:02:01.117Z,18
2019-03-28T08:03:01.091Z,16
2019-03-28T08:04:01.087Z,15
2019-03-28T08:05:01.573Z,16
2019-03-28T08:06:01.087Z,15
2019-03-28T08:07:01.117Z,16
2019-03-28T08:08:01.089Z,18
2019-03-28T08:09:01.089Z,19
2019-03-28T08:10:01.088Z,18
2019-03-28T08:11:01.089Z,20
2019-03-28T08:12:01.086Z,18
2019-03-28T08:13:01.157Z,16
2019-03-28T08:15:01.093Z,16
2019-03-28T08:16:01.088Z,14
2019-03-28T08:17:01.058Z,15
2019-03-28T08:18:01.122Z,16
2019-03-28T08:19:01.154Z,14
2019-03-28T08:20:01.091Z,15
2019-03-28T08:21:01.059Z,16
2019-03-28T08:25:01.095Z,15
2019-03-28T08:28:01.126Z,14
2019-03-28T08:29:01.060Z,16
2019-03-28T08:30:01.094Z,17
2019-03-28T08:31:02.147Z,16
2019-03-28T08:32:01.093Z,17
2019-03-28T08:33:01.126Z,18
2019-03-28T08:34:01.918Z,17
2019-03-28T08:35:01.095Z,18
2019-03-28T08:36:01.063Z,16
2019-03-28T08:38:01.129Z,18
2019-03-28T08:40:01.100Z,16
2019-03-28T08:41:01.097Z,17
2019-03-28T08:42:01.098Z,16
2019-03-28T08:43:01.130Z,14
2019-03-28T08:45:02.594Z,13
2019-03-28T08:46:01.490Z,14
2019-03-28T08:47:01.066Z,15
2019-03-28T08:48:01.128Z,16
2019-03-28T08:49:01.097Z,17
2019-03-28T08:50:01.096Z,18
2019-03-28T08:51:01.101Z,17
2019-03-28T08:53:01.120Z,16
2019-03-28T08:54:01.099Z,13
2019-03-28T08:55:01.120Z,14
2019-03-28T08:56:01.163Z,15
2019-03-28T08:57:01.098Z,14
2019-03-28T08:58:01.104Z,15
2019-03-28T09:00:01.124Z,14
2019-03-28T09:01:01.097Z,13
2019-03-28T09:04:01.098Z,14
2019-03-28T09:05:01.122Z,15
2019-03-28T09:06:01.064Z,16
2019-03-28T09:08:01.101Z,15
2019-03-28T09:09:02.189Z,16
2019-03-28T09:10:01.113Z,15
2019-03-28T09:11:01.097Z,17
2019-03-28T09:12:01.067Z,18
2019-03-28T09:13:01.099Z,19
2019-03-28T09:14:01.098Z,20
2019-03-28T09:15:01.099Z,20
2019-03-28T09:16:01.180Z,18
2019-03-28T09:19:01.098Z,17
2019-03-28T09:20:01.083Z,15
2019-03-28T09:21:01.080Z,16
2019-03-28T09:22:01.085Z,17
2019-03-28T09:23:01.083Z,15
2019-03-28T09:24:01.147Z,16
2019-03-28T09:26:04.184Z,15
2019-03-28T09:28:01.106Z,16
2019-03-28T09:30:02.019Z,15
2019-03-28T09:32:01.115Z,12
2019-03-28T09:33:01.084Z,13
2019-03-28T09:34:01.114Z,14
2019-03-28T09:35:01.082Z,17
2019-03-28T09:36:01.084Z,20
2019-03-28T09:37:01.086Z,22
2019-03-28T09:38:01.078Z,21
2019-03-28T09:39:01.243Z,20
2019-03-28T09:40:01.089Z,19
2019-03-28T09:41:01.052Z,18
2019-03-28T09:43:01.130Z,16
2019-03-28T09:44:01.085Z,17
2019-03-28T09:45:01.084Z,17
2019-03-28T09:46:01.950Z,16
2019-03-28T09:48:01.052Z,18
2019-03-28T09:50:01.082Z,19
2019-03-28T09:52:01.088Z,20
2019-03-28T09:53:01.107Z,18
2019-03-28T09:54:01.091Z,15
2019-03-28T09:55:01.118Z,16
2019-03-28T09:56:01.090Z,17
2019-03-28T09:58:01.089Z,18
2019-03-28T09:59:01.089Z,19
2019-03-28T10:00:01.103Z,18
2019-03-28T10:01:02.969Z,16
2019-03-28T10:02:01.365Z,15
2019-03-28T10:08:01.116Z,14
2019-03-28T10:09:01.092Z,13
2019-03-28T10:10:01.908Z,11
2019-03-28T10:12:01.124Z,12
2019-03-28T10:13:01.096Z,13
2019-03-28T10:14:01.092Z,14
2019-03-28T10:15:01.092Z,17
2019-03-28T10:16:01.170Z,18
2019-03-28T10:17:01.489Z,17
2019-03-28T10:18:01.106Z,18
2019-03-28T10:20:01.093Z,16
2019-03-28T10:22:01.127Z,17
2019-03-28T10:23:01.095Z,16
2019-03-28T10:24:02.009Z,18
2019-03-28T10:26:01.099Z,19
2019-03-28T10:27:01.126Z,20
2019-03-28T10:28:01.061Z,19
2019-03-28T10:29:01.081Z,18
2019-03-28T10:30:01.094Z,18
2019-03-28T10:31:01.093Z,16
2019-03-28T10:32:01.126Z,17
2019-03-28T10:33:01.094Z,15
2019-03-28T10:35:01.096Z,17
2019-03-28T10:39:01.106Z,18
2019-03-28T10:40:01.091Z,19
2019-03-28T10:41:01.082Z,17
2019-03-28T10:43:01.086Z,18
2019-03-28T10:45:01.110Z,16
2019-03-28T10:47:01.051Z,15
2019-03-28T10:48:01.082Z,13
2019-03-28T10:49:01.085Z,12
2019-03-28T10:50:03.812Z,14
2019-03-28T10:51:02.046Z,16
2019-03-28T10:53:01.085Z,15
2019-03-28T10:56:01.055Z,14
2019-03-28T10:57:12.849Z,15
2019-03-28T10:58:01.055Z,16
2019-03-28T11:00:01.145Z,17
2019-03-28T11:02:01.053Z,18
2019-03-28T11:06:01.086Z,16
2019-03-28T11:07:01.054Z,17
2019-03-28T11:08:01.087Z,16
2019-03-28T11:09:01.087Z,15
2019-03-28T11:10:01.294Z,14
2019-03-28T11:14:01.164Z,15
2019-03-28T11:15:01.114Z,16
2019-03-28T11:16:01.091Z,17
2019-03-28T11:17:01.058Z,16
2019-03-28T11:18:01.089Z,17
2019-03-28T11:20:01.083Z,18
2019-03-28T11:21:01.197Z,17
2019-03-28T11:23:02.345Z,16
2019-03-28T11:24:01.092Z,18
2019-03-28T11:25:01.133Z,16
2019-03-28T11:26:01.101Z,19
2019-03-28T11:28:01.119Z,17
2019-03-28T11:30:01.094Z,19
2019-03-28T11:31:01.094Z,16
2019-03-28T11:34:01.095Z,15
2019-03-28T11:35:01.127Z,16
2019-03-28T11:38:01.094Z,18
2019-03-28T11:39:02.893Z,19
2019-03-28T11:40:01.158Z,18
2019-03-28T11:41:01.095Z,17
2019-03-28T11:44:01.096Z,18
2019-03-28T11:46:01.047Z,19
2019-03-28T11:48:01.081Z,22
2019-03-28T11:49:01.082Z,20
2019-03-28T11:50:01.081Z,18
2019-03-28T11:51:01.081Z,17
2019-03-28T11:53:01.082Z,14
2019-03-28T11:54:01.080Z,15
2019-03-28T11:55:01.080Z,16
2019-03-28T11:57:01.082Z,17
2019-03-28T11:58:01.082Z,20
2019-03-28T11:59:04.288Z,19
2019-03-28T12:00:01.444Z,19
2019-03-28T12:01:01.117Z,18
2019-03-28T12:02:18.542Z,16
2019-03-28T12:03:01.051Z,15
2019-03-28T12:04:01.082Z,16
2019-03-28T12:05:01.058Z,17
2019-03-28T12:06:01.049Z,16
2019-03-28T12:07:01.082Z,18
2019-03-28T12:09:01.086Z,17
2019-03-28T12:10:01.084Z,18
2019-03-28T12:11:01.050Z,19
2019-03-28T12:15:01.087Z,19
2019-03-28T12:17:01.178Z,18
2019-03-28T12:18:01.085Z,19
2019-03-28T12:19:01.061Z,18
2019-03-28T12:25:01.614Z,17
2019-03-28T12:26:01.103Z,18
2019-03-28T12:27:01.535Z,16
2019-03-28T12:28:01.087Z,14
2019-03-28T12:29:01.091Z,13
2019-03-28T12:30:01.106Z,14
2019-03-28T12:31:01.088Z,13
2019-03-28T12:32:13.279Z,14
2019-03-28T12:34:01.079Z,15
2019-03-28T12:35:01.092Z,13
2019-03-28T12:37:01.093Z,12
2019-03-28T12:39:01.113Z,14
2019-03-28T12:41:01.091Z,15
2019-03-28T12:42:01.096Z,16
2019-03-28T12:43:01.092Z,17
2019-03-28T12:44:01.123Z,16
2019-03-28T12:45:01.091Z,16
2019-03-28T12:46:01.059Z,15
2019-03-28T12:47:01.061Z,16
2019-03-28T12:49:01.136Z,17
2019-03-28T12:50:01.093Z,18
2019-03-28T12:51:01.093Z,19
2019-03-28T12:52:01.059Z,18
2019-03-28T12:54:01.221Z,19
2019-03-28T12:55:01.094Z,17
2019-03-28T12:57:01.097Z,16
2019-03-28T12:58:01.127Z,15
2019-03-28T12:59:01.093Z,13
2019-03-28T13:00:01.107Z,13
2019-03-28T13:03:01.143Z,14
2019-03-28T13:04:01.096Z,15
2019-03-28T13:05:01.096Z,14
2019-03-28T13:07:01.094Z,15
2019-03-28T13:08:01.130Z,14
2019-03-28T13:09:01.063Z,13
2019-03-28T13:10:02.311Z,15
2019-03-28T13:11:01.098Z,16
2019-03-28T13:12:01.104Z,17
2019-03-28T13:14:01.127Z,18
2019-03-28T13:15:01.065Z,17
2019-03-28T13:17:02.123Z,15
2019-03-28T13:19:01.136Z,16
2019-03-28T13:20:01.064Z,17
2019-03-28T13:21:12.621Z,19
2019-03-28T13:22:01.101Z,18
2019-03-28T13:24:01.084Z,19
2019-03-28T13:26:01.103Z,18
2019-03-28T13:27:01.080Z,17
2019-03-28T13:30:01.105Z,16
2019-03-28T13:31:01.080Z,15
2019-03-28T13:32:01.080Z,14
2019-03-28T13:33:01.050Z,15
2019-03-28T13:34:01.456Z,16
2019-03-28T13:36:01.082Z,18
2019-03-28T13:37:01.052Z,20
2019-03-28T13:38:01.089Z,19
2019-03-28T13:39:01.082Z,17
2019-03-28T13:41:01.085Z,16
2019-03-28T13:42:01.091Z,14
2019-03-28T13:43:01.083Z,16
2019-03-28T13:44:01.082Z,17
2019-03-28T13:45:01.051Z,17
2019-03-28T13:48:01.084Z,16
2019-03-28T13:50:01.088Z,18
2019-03-28T13:53:01.129Z,20
2019-03-28T13:54:01.086Z,18
2019-03-28T13:55:01.086Z,16
2019-03-28T13:58:01.092Z,15
2019-03-28T13:59:01.078Z,16
2019-03-28T14:00:01.860Z,18
2019-03-28T14:01:01.055Z,17
2019-03-28T14:02:01.056Z,19
2019-03-28T14:03:01.089Z,17
2019-03-28T14:04:01.120Z,16
2019-03-28T14:05:01.089Z,14
2019-03-28T14:07:01.097Z,12
2019-03-28T14:08:01.058Z,14
2019-03-28T14:10:01.113Z,16
2019-03-28T14:12:01.089Z,17
2019-03-28T14:13:01.057Z,16
2019-03-28T14:14:01.092Z,18
2019-03-28T14:15:01.113Z,18
2019-03-28T14:16:01.090Z,19
2019-03-28T14:19:01.089Z,16
2019-03-28T14:24:01.127Z,17
2019-03-28T14:25:01.057Z,15
2019-03-28T14:26:01.121Z,12
2019-03-28T14:27:01.058Z,13
2019-03-28T14:29:01.068Z,15
2019-03-28T14:30:01.089Z,15
2019-03-28T14:33:10.866Z,16
2019-03-28T14:34:01.088Z,14
2019-03-28T14:35:01.089Z,16
2019-03-28T14:36:01.089Z,15
2019-03-28T14:38:01.089Z,14
2019-03-28T14:39:01.055Z,15
2019-03-28T14:40:01.580Z,13
2019-03-28T14:41:02.006Z,15
2019-03-28T14:42:01.087Z,16
2019-03-28T14:44:01.091Z,17
2019-03-28T14:45:01.057Z,17
2019-03-28T14:46:01.090Z,19
2019-03-28T14:47:01.087Z,20
2019-03-28T14:49:01.282Z,19
2019-03-28T14:51:01.089Z,18
2019-03-28T14:52:01.088Z,16
2019-03-28T14:53:01.087Z,15
2019-03-28T14:54:01.097Z,16
2019-03-28T14:55:01.521Z,14
2019-03-28T14:59:01.115Z,16
2019-03-28T15:00:01.093Z,16
2019-03-28T15:01:01.093Z,17
2019-03-28T15:04:01.111Z,15
2019-03-28T15:05:01.059Z,16
2019-03-28T15:07:01.090Z,17
2019-03-28T15:08:01.090Z,18
2019-03-28T15:09:01.114Z,19
2019-03-28T15:10:01.918Z,18
2019-03-28T15:11:01.688Z,19
2019-03-28T15:12:01.090Z,17
2019-03-28T15:13:01.098Z,18
2019-03-28T15:15:01.125Z,20
2019-03-28T15:17:01.095Z,19
2019-03-28T15:18:01.097Z,18
2019-03-28T15:19:01.095Z,15
2019-03-28T15:20:01.128Z,14
2019-03-28T15:21:01.091Z,12
2019-03-28T15:22:01.091Z,14
2019-03-28T15:24:01.092Z,15
2019-03-28T15:27:01.140Z,16
2019-03-28T15:29:01.081Z,17
2019-03-28T15:30:01.051Z,18
2019-03-28T15:31:01.975Z,17
2019-03-28T15:33:01.078Z,19
2019-03-28T15:34:01.078Z,18
2019-03-28T15:36:01.076Z,19
2019-03-28T15:37:01.099Z,17
2019-03-28T15:38:01.076Z,16
2019-03-28T15:39:01.080Z,15
2019-03-28T15:44:01.087Z,17
2019-03-28T15:45:01.087Z,16
2019-03-28T15:46:01.085Z,14
2019-03-28T15:49:01.775Z,13
2019-03-28T15:51:01.084Z,16
2019-03-28T15:53:01.087Z,17
2019-03-28T15:55:01.087Z,18
2019-03-28T15:57:01.141Z,20
2019-03-28T15:58:01.098Z,19
2019-03-28T16:00:01.099Z,17
2019-03-28T16:01:01.057Z,16
2019-03-28T16:02:01.092Z,17
2019-03-28T16:05:01.118Z,18
2019-03-28T16:07:01.099Z,17
2019-03-28T16:11:01.092Z,18
2019-03-28T16:15:01.119Z,18
2019-03-28T16:19:01.696Z,16
2019-03-28T16:21:01.095Z,17
2019-03-28T16:22:04.000Z,18
2019-03-28T16:23:01.099Z,17
2019-03-28T16:24:01.062Z,18
2019-03-28T16:25:01.098Z,17
2019-03-28T16:26:06.103Z,15
2019-03-28T16:27:01.095Z,14
2019-03-28T16:28:01.099Z,16
2019-03-28T16:29:01.097Z,17
2019-03-28T16:30:01.232Z,17
2019-03-28T16:32:01.098Z,20
2019-03-28T16:33:01.100Z,19
2019-03-28T16:34:06.502Z,18
2019-03-28T16:35:01.098Z,17
2019-03-28T16:37:01.767Z,18
2019-03-28T16:38:01.089Z,16
2019-03-28T16:39:01.053Z,17
2019-03-28T16:40:01.148Z,18
2019-03-28T16:42:01.107Z,17
2019-03-28T16:43:01.082Z,18
2019-03-28T16:44:01.085Z,17
2019-03-28T16:45:01.083Z,17
2019-03-28T16:46:01.109Z,18
2019-03-28T16:48:01.083Z,16
2019-03-28T16:49:01.083Z,17
2019-03-28T16:50:01.086Z,15
2019-03-28T16:51:01.108Z,16
2019-03-28T16:52:01.055Z,18
2019-03-28T16:54:01.725Z,17
2019-03-28T16:55:01.057Z,16
2019-03-28T16:56:01.106Z,14
2019-03-28T16:58:01.083Z,13
2019-03-28T17:00:01.084Z,16
2019-03-28T17:02:01.085Z,14
2019-03-28T17:03:01.085Z,16
2019-03-28T17:05:01.085Z,14
2019-03-28T17:06:01.085Z,16
2019-03-28T17:07:01.956Z,17
2019-03-28T17:09:01.089Z,16
2019-03-28T17:11:01.086Z,18
2019-03-28T17:12:01.086Z,17
2019-03-28T17:13:01.086Z,19
2019-03-28T17:14:01.086Z,18
2019-03-28T17:15:01.089Z,18
2019-03-28T17:16:01.087Z,15
2019-03-28T17:17:01.112Z,14
2019-03-28T17:18:01.086Z,12
2019-03-28T17:19:01.056Z,13
2019-03-28T17:20:01.090Z,15
2019-03-28T17:21:01.089Z,17
2019-03-28T17:22:01.115Z,16
2019-03-28T17:29:01.089Z,15
2019-03-28T17:30:01.101Z,16
2019-03-28T17:31:01.090Z,14
2019-03-28T17:32:01.089Z,16
2019-03-28T17:33:01.061Z,18
2019-03-28T17:35:01.058Z,17
2019-03-28T17:38:01.094Z,18
2019-03-28T17:39:01.151Z,19
2019-03-28T17:40:01.095Z,21
2019-03-28T17:41:02.431Z,23
2019-03-28T17:42:01.061Z,24
2019-03-28T17:43:01.100Z,22
2019-03-28T17:44:01.093Z,21
2019-03-28T17:45:01.099Z,18
2019-03-28T17:46:01.123Z,17
2019-03-28T17:48:01.090Z,16
2019-03-28T17:51:01.096Z,17
2019-03-28T17:52:06.097Z,16
2019-03-28T17:53:01.091Z,15
2019-03-28T17:54:01.097Z,17
2019-03-28T17:55:01.331Z,18
2019-03-28T17:56:01.092Z,17
2019-03-28T17:57:06.099Z,16
2019-03-28T17:58:01.098Z,17
2019-03-28T18:00:01.101Z,16
2019-03-28T18:01:01.118Z,18
2019-03-28T18:02:01.067Z,19
2019-03-28T18:03:08.798Z,20
2019-03-28T18:04:01.093Z,21
2019-03-28T18:05:08.817Z,22
2019-03-28T18:06:01.093Z,21
2019-03-28T18:07:01.423Z,22
2019-03-28T18:09:01.096Z,21
2019-03-28T18:11:01.116Z,20
2019-03-28T18:12:01.101Z,18
2019-03-28T18:13:01.097Z,16
2019-03-28T18:14:01.095Z,17
2019-03-28T18:15:01.100Z,17
2019-03-28T18:19:01.090Z,19
2019-03-28T18:20:01.080Z,18
2019-03-28T18:22:03.540Z,17
2019-03-28T18:23:01.081Z,18
2019-03-28T18:24:01.080Z,15
2019-03-28T18:26:01.086Z,16
2019-03-28T18:29:01.637Z,17
2019-03-28T18:30:01.082Z,17
2019-03-28T18:33:03.812Z,18
2019-03-28T18:35:05.452Z,17
2019-03-28T18:36:01.078Z,15
2019-03-28T18:37:01.079Z,14
2019-03-28T18:38:01.113Z,15
2019-03-28T18:41:01.089Z,16
2019-03-28T18:42:01.083Z,17
2019-03-28T18:43:01.613Z,16
2019-03-28T18:45:01.086Z,17
2019-03-28T18:46:01.083Z,16
2019-03-28T18:47:01.084Z,15
2019-03-28T18:52:01.083Z,16
2019-03-28T18:53:01.081Z,14
2019-03-28T18:54:01.128Z,16
2019-03-28T18:55:01.086Z,15
2019-03-28T18:56:01.051Z,16
2019-03-28T18:59:01.107Z,15
2019-03-28T19:00:01.053Z,16
2019-03-28T19:01:01.087Z,18
2019-03-28T19:04:01.116Z,17
2019-03-28T19:05:01.054Z,19
2019-03-28T19:06:01.085Z,17
2019-03-28T19:08:01.737Z,18
2019-03-28T19:09:01.146Z,19
2019-03-28T19:13:04.268Z,18
2019-03-28T19:14:01.394Z,19
2019-03-28T19:15:01.116Z,16
2019-03-28T19:17:01.090Z,15
2019-03-28T19:19:01.090Z,16
2019-03-28T19:20:01.114Z,17
2019-03-28T19:21:01.244Z,18
2019-03-28T19:23:01.091Z,19
2019-03-28T19:24:01.090Z,18
2019-03-28T19:26:01.253Z,17
2019-03-28T19:28:01.093Z,16
2019-03-28T19:29:01.059Z,15
2019-03-28T19:30:01.085Z,15
2019-03-28T19:31:01.092Z,14
2019-03-28T19:32:01.061Z,15
2019-03-28T19:33:01.096Z,16
2019-03-28T19:34:01.096Z,19
2019-03-28T19:35:02.941Z,20
2019-03-28T19:36:01.508Z,21
2019-03-28T19:37:01.093Z,20
2019-03-28T19:39:01.092Z,17
2019-03-28T19:40:01.093Z,16
2019-03-28T19:41:01.062Z,14
2019-03-28T19:42:04.170Z,16
2019-03-28T19:43:01.094Z,15
2019-03-28T19:44:01.097Z,16
2019-03-28T19:45:01.136Z,17
2019-03-28T19:46:01.094Z,18
2019-03-28T19:47:01.092Z,17
2019-03-28T19:48:01.096Z,18
2019-03-28T19:49:01.064Z,19
2019-03-28T19:50:01.125Z,17
2019-03-28T19:51:01.108Z,16
2019-03-28T19:55:02.038Z,17
2019-03-28T19:59:06.068Z,16
2019-03-28T20:00:01.128Z,14
2019-03-28T20:01:01.064Z,15
2019-03-28T20:02:01.095Z,14
2019-03-28T20:06:01.121Z,15
2019-03-28T20:07:01.109Z,16
2019-03-28T20:08:14.314Z,17
2019-03-28T20:10:01.056Z,18
2019-03-28T20:11:01.052Z,20
2019-03-28T20:13:01.113Z,19
2019-03-28T20:14:01.049Z,18
2019-03-28T20:15:01.082Z,17
2019-03-28T20:16:01.082Z,13
2019-03-28T20:18:01.949Z,14
2019-03-28T20:20:01.084Z,17
2019-03-28T20:21:01.083Z,18
2019-03-28T20:22:01.058Z,19
2019-03-28T20:23:01.083Z,18
2019-03-28T20:24:01.115Z,16
2019-03-28T20:25:01.083Z,13
2019-03-28T20:26:01.083Z,12
2019-03-28T20:28:01.085Z,13
2019-03-28T20:29:01.052Z,15
2019-03-28T20:30:01.594Z,16
2019-03-28T20:31:01.090Z,17
2019-03-28T20:33:01.086Z,16
2019-03-28T20:35:01.121Z,15
2019-03-28T20:36:19.172Z,14
2019-03-28T20:39:04.056Z,13
2019-03-28T20:40:01.111Z,14